Time;durP1;ratioP1;P1;durP2;ratioP2;P2;SDS_P1;SDS_P2;PMS_P1;PMS_P2;Temp;Humidity;BMP_temperature;BMP_pressure;BME280_temperature;BME280_humidity;BME280_pressure;Samples;Min_cycle;Max_cycle;Signal;HPM_P1;HPM_P2
2022/12/22 03:26:26;;;;;;;;;;;22.60;90.70;;;;;;5047693;28;19951;-76
2022/12/22 03:28:53;;;;;;;;;;;22.70;90.50;;;;;;5044067;28;19931;-73
2022/12/22 03:31:19;;;;;;;;;;;22.90;90.80;;;;;;5055310;28;19919;-74
2022/12/22 03:33:46;;;;;;;;;;;23.30;90.90;;;;;;5047851;28;19920;-73
2022/12/22 03:36:13;;;;;;;;;;;23.60;90.20;;;;;;5051715;28;20014;-74
2022/12/22 03:38:39;;;;;;;;;;;23.90;90.10;;;;;;5046755;28;20070;-73
2022/12/22 03:41:06;;;;;;;;;;;24.00;90.20;;;;;;5054145;28;19912;-74
2022/12/22 03:46:30;;;;;;;;;;;23.80;89.10;;;;;;5051427;28;20406;-74
2022/12/22 03:49:12;;;;;;;;;;;23.70;88.50;;;;;;5050061;28;20008;-73
2022/12/22 03:51:46;;;;;;;;;;;23.60;90.00;;;;;;5036547;28;20004;-76
2022/12/22 03:54:17;;;;;;;;;;;23.40;90.00;;;;;;5041647;28;20007;-76
2022/12/22 03:56:44;;;;;;;;;;;23.30;90.30;;;;;;5045503;28;19925;-75
2022/12/22 03:59:11;;;;;;;;;;;23.40;90.40;;;;;;5041886;28;20512;-74
2022/12/22 04:01:39;;;;;;;;;;;23.60;90.50;;;;;;5043454;28;19959;-73
2022/12/22 04:04:06;;;;;;;;;;;23.60;89.90;;;;;;5034324;28;20008;-74
2022/12/22 04:06:33;;;;;;;;;;;23.40;90.20;;;;;;5035580;28;19909;-75
2022/12/22 04:08:59;;;;;;;;;;;23.60;89.60;;;;;;5045913;28;19973;-74
2022/12/22 04:14:11;;;;;;;;;;;23.60;89.30;;;;;;5053378;28;19919;-75
2022/12/22 04:16:37;;;;;;;;;;;23.60;89.10;;;;;;5036199;28;19966;-75
2022/12/22 04:19:05;;;;;;;;;;;23.60;89.60;;;;;;5049187;28;20380;-73
2022/12/22 04:21:32;;;;;;;;;;;23.60;88.70;;;;;;5039057;28;20385;-73
2022/12/22 04:24:00;;;;;;;;;;;23.30;89.30;;;;;;5035008;28;20011;-73
2022/12/22 04:26:26;;;;;;;;;;;23.10;89.90;;;;;;5040094;28;19924;-74
2022/12/22 04:28:53;;;;;;;;;;;23.10;90.20;;;;;;5039167;28;19920;-74
2022/12/22 04:31:20;;;;;;;;;;;23.10;90.20;;;;;;5045978;28;19909;-74
2022/12/22 04:33:47;;;;;;;;;;;23.10;90.30;;;;;;5047187;28;19981;-77
2022/12/22 04:36:14;;;;;;;;;;;23.30;90.30;;;;;;5052630;28;19916;-73
2022/12/22 04:38:41;;;;;;;;;;;23.40;89.50;;;;;;5053412;28;19964;-76
2022/12/22 04:41:08;;;;;;;;;;;23.40;89.80;;;;;;5051653;28;19909;-74
2022/12/22 04:43:34;;;;;;;;;;;23.40;90.00;;;;;;5049266;28;19912;-74
2022/12/22 04:46:01;;;;;;;;;;;23.30;90.10;;;;;;5047313;28;19923;-76
2022/12/22 04:48:28;;;;;;;;;;;23.40;90.20;;;;;;5043420;28;19912;-76
2022/12/22 04:50:56;;;;;;;;;;;23.40;90.50;;;;;;5045770;28;19913;-79
2022/12/22 04:53:23;;;;;;;;;;;23.50;90.50;;;;;;5053059;28;19909;-74
2022/12/22 04:55:54;;;;;;;;;;;23.50;90.50;;;;;;5050171;28;19921;-75
2022/12/22 04:58:20;;;;;;;;;;;23.60;90.40;;;;;;5051867;28;20379;-75
2022/12/22 05:00:47;;;;;;;;;;;23.80;89.90;;;;;;5050327;28;20035;-76
2022/12/22 05:03:14;;;;;;;;;;;23.60;90.20;;;;;;5053253;28;19934;-74
2022/12/22 05:05:40;;;;;;;;;;;23.60;90.20;;;;;;5039989;28;19920;-77
2022/12/22 05:08:07;;;;;;;;;;;23.50;90.30;;;;;;5038664;28;20003;-76
2022/12/22 05:10:34;;;;;;;;;;;23.30;90.50;;;;;;5042948;28;19919;-75
2022/12/22 05:13:03;;;;;;;;;;;23.20;91.10;;;;;;5052607;28;20258;-76
2022/12/22 05:15:34;;;;;;;;;;;23.10;90.90;;;;;;5050054;28;19924;-73
2022/12/22 05:18:01;;;;;;;;;;;22.90;91.20;;;;;;5050245;28;20583;-74
2022/12/22 05:20:28;;;;;;;;;;;22.90;91.50;;;;;;5046499;28;19963;-75
2022/12/22 05:22:55;;;;;;;;;;;22.80;91.40;;;;;;5039721;28;19913;-73
2022/12/22 05:25:21;;;;;;;;;;;22.60;91.70;;;;;;5046260;28;20014;-74
2022/12/22 05:27:49;;;;;;;;;;;22.50;92.10;;;;;;5043675;28;19913;-73
2022/12/22 05:30:17;;;;;;;;;;;22.60;92.00;;;;;;5045067;28;19936;-71
2022/12/22 05:32:44;;;;;;;;;;;22.60;92.10;;;;;;5038728;28;20353;-73
2022/12/22 05:35:10;;;;;;;;;;;22.50;92.20;;;;;;5043575;28;19917;-74
2022/12/22 05:37:37;;;;;;;;;;;22.50;92.60;;;;;;5042855;28;19917;-74
2022/12/22 05:40:04;;;;;;;;;;;22.50;92.20;;;;;;5046782;28;19917;-72
2022/12/22 05:42:37;;;;;;;;;;;22.50;92.60;;;;;;5053793;28;19912;-73
2022/12/22 05:45:13;;;;;;;;;;;22.50;92.50;;;;;;5036955;28;20132;-74
2022/12/22 05:47:40;;;;;;;;;;;22.40;92.60;;;;;;5048170;28;19916;-74
2022/12/22 05:50:08;;;;;;;;;;;22.30;93.30;;;;;;5035762;28;20380;-73
2022/12/22 05:52:34;;;;;;;;;;;22.10;94.50;;;;;;5055966;28;19913;-71
2022/12/22 05:55:01;;;;;;;;;;;21.90;95.30;;;;;;5054211;28;19964;-73
2022/12/22 05:57:28;;;;;;;;;;;21.70;95.80;;;;;;5056027;28;19909;-73
2022/12/22 05:59:57;;;;;;;;;;;21.60;96.40;;;;;;5043795;28;19913;-73
2022/12/22 06:02:25;;;;;;;;;;;21.40;96.80;;;;;;5050987;28;19912;-72
2022/12/22 06:04:51;;;;;;;;;;;21.30;97.60;;;;;;5051232;28;20289;-72
2022/12/22 06:07:18;;;;;;;;;;;21.20;97.30;;;;;;5047662;28;19958;-72
2022/12/22 06:09:53;;;;;;;;;;;21.20;98.30;;;;;;5050128;28;19923;-73
2022/12/22 06:12:19;;;;;;;;;;;21.20;98.20;;;;;;5048814;28;19917;-74
2022/12/22 06:14:46;;;;;;;;;;;21.10;99.00;;;;;;5045986;28;19955;-71
2022/12/22 06:17:13;;;;;;;;;;;21.10;99.20;;;;;;5040646;28;20558;-75
2022/12/22 06:19:39;;;;;;;;;;;21.10;99.50;;;;;;5053874;28;20353;-71
2022/12/22 06:22:07;;;;;;;;;;;21.00;99.30;;;;;;5047869;28;20546;-72
2022/12/22 06:24:34;;;;;;;;;;;21.00;99.50;;;;;;5045528;28;19912;-70
2022/12/22 06:27:00;;;;;;;;;;;20.90;99.00;;;;;;5048160;28;20303;-74
2022/12/22 06:29:27;;;;;;;;;;;20.90;99.00;;;;;;5044463;28;19912;-73
2022/12/22 06:31:53;;;;;;;;;;;20.90;99.30;;;;;;5044012;28;19917;-73
2022/12/22 06:34:21;;;;;;;;;;;20.90;99.60;;;;;;5043639;28;19913;-74
2022/12/22 06:36:47;;;;;;;;;;;20.90;99.50;;;;;;5044101;28;19917;-72
2022/12/22 06:39:15;;;;;;;;;;;20.90;99.60;;;;;;5048596;28;20293;-73
2022/12/22 06:44:31;;;;;;;;;;;20.90;99.60;;;;;;5043843;28;19920;-74
2022/12/22 06:46:57;;;;;;;;;;;20.90;99.90;;;;;;5046012;28;20349;-74
2022/12/22 06:49:24;;;;;;;;;;;21.00;99.90;;;;;;5042210;28;20015;-74
2022/12/22 06:51:51;;;;;;;;;;;20.90;99.70;;;;;;5046058;28;19912;-74
2022/12/22 06:54:17;;;;;;;;;;;20.90;99.90;;;;;;5047240;28;19909;-74
2022/12/22 06:56:44;;;;;;;;;;;20.80;99.90;;;;;;5044567;28;20510;-74
2022/12/22 06:59:11;;;;;;;;;;;20.60;99.90;;;;;;5047488;28;19935;-74
2022/12/22 07:01:38;;;;;;;;;;;20.60;99.90;;;;;;5043176;28;20396;-74
2022/12/22 07:04:04;;;;;;;;;;;20.70;99.90;;;;;;5041185;28;19917;-74
2022/12/22 07:06:31;;;;;;;;;;;20.80;99.90;;;;;;5042668;28;19915;-73
2022/12/22 07:08:57;;;;;;;;;;;20.70;99.90;;;;;;5044201;28;20273;-73
2022/12/22 07:11:24;;;;;;;;;;;20.70;99.90;;;;;;5046066;28;19908;-73
2022/12/22 07:13:51;;;;;;;;;;;20.70;99.90;;;;;;5041791;28;19916;-75
2022/12/22 07:16:17;;;;;;;;;;;20.70;99.90;;;;;;5048333;28;19975;-71
2022/12/22 07:18:44;;;;;;;;;;;20.70;99.90;;;;;;5040443;28;20642;-75
2022/12/22 07:21:12;;;;;;;;;;;20.70;99.90;;;;;;5046418;28;19913;-74
2022/12/22 07:23:39;;;;;;;;;;;20.60;99.90;;;;;;5042918;28;19919;-73
2022/12/22 07:26:07;;;;;;;;;;;20.50;99.90;;;;;;5047107;28;19936;-72
2022/12/22 07:28:34;;;;;;;;;;;20.40;99.90;;;;;;5044703;28;20353;-72
2022/12/22 07:31:01;;;;;;;;;;;20.30;99.90;;;;;;5045297;28;19912;-73
2022/12/22 07:33:28;;;;;;;;;;;20.20;99.90;;;;;;5045737;28;19927;-73
2022/12/22 07:36:02;;;;;;;;;;;20.30;99.90;;;;;;5045043;28;20520;-72
2022/12/22 07:38:30;;;;;;;;;;;20.20;99.90;;;;;;5044828;28;19909;-73
2022/12/22 07:40:58;;;;;;;;;;;20.30;99.90;;;;;;5044709;28;19909;-71
2022/12/22 07:43:24;;;;;;;;;;;20.20;99.90;;;;;;5047925;28;20274;-69
2022/12/22 07:45:51;;;;;;;;;;;20.40;99.90;;;;;;5044521;28;20388;-71
2022/12/22 07:51:04;;;;;;;;;;;20.20;99.90;;;;;;5044315;28;20609;-71
2022/12/22 07:53:32;;;;;;;;;;;20.20;99.90;;;;;;5044944;28;19920;-70
2022/12/22 07:56:03;;;;;;;;;;;20.10;99.90;;;;;;5043433;28;19928;-71
2022/12/22 07:58:30;;;;;;;;;;;20.00;99.90;;;;;;5046647;28;19908;-71
2022/12/22 08:00:57;;;;;;;;;;;20.10;99.90;;;;;;5042897;28;19932;-72
2022/12/22 08:03:24;;;;;;;;;;;20.10;99.90;;;;;;5039627;28;19909;-72
2022/12/22 08:05:51;;;;;;;;;;;20.10;99.90;;;;;;5041155;28;19908;-73
2022/12/22 08:08:17;;;;;;;;;;;20.10;99.90;;;;;;5040629;28;21003;-71
2022/12/22 08:10:44;;;;;;;;;;;20.10;99.90;;;;;;5042933;28;19935;-73
2022/12/22 08:13:10;;;;;;;;;;;20.10;99.90;;;;;;5043035;28;20060;-72
2022/12/22 08:15:37;;;;;;;;;;;20.10;99.90;;;;;;5043010;28;20607;-73
2022/12/22 08:18:04;;;;;;;;;;;20.00;99.90;;;;;;5044151;28;19913;-73
2022/12/22 08:20:30;;;;;;;;;;;19.90;99.90;;;;;;5042694;28;19932;-70
2022/12/22 08:22:57;;;;;;;;;;;19.90;99.90;;;;;;5037696;28;20085;-70
2022/12/22 08:25:24;;;;;;;;;;;19.90;99.90;;;;;;5035844;28;19993;-70
2022/12/22 08:27:51;;;;;;;;;;;19.90;99.90;;;;;;5032266;28;20388;-72
2022/12/22 08:30:18;;;;;;;;;;;19.90;99.90;;;;;;5046489;28;19913;-70
2022/12/22 08:32:46;;;;;;;;;;;19.70;99.90;;;;;;5040688;28;20430;-71
2022/12/22 08:35:13;;;;;;;;;;;19.70;99.90;;;;;;5042242;28;19924;-70
2022/12/22 08:37:44;;;;;;;;;;;19.70;99.90;;;;;;5041038;28;20488;-70
2022/12/22 08:40:24;;;;;;;;;;;19.60;99.90;;;;;;5037638;28;19959;-74
2022/12/22 08:42:52;;;;;;;;;;;19.60;99.90;;;;;;5039763;28;19916;-71
2022/12/22 08:45:19;;;;;;;;;;;19.50;99.90;;;;;;5035675;28;19908;-73
2022/12/22 08:47:46;;;;;;;;;;;19.50;99.90;;;;;;5040077;28;20395;-70
2022/12/22 08:50:12;;;;;;;;;;;19.50;99.90;;;;;;5052300;28;19920;-71
2022/12/22 08:52:39;;;;;;;;;;;19.50;99.90;;;;;;5054199;28;19913;-71
2022/12/22 08:55:06;;;;;;;;;;;19.50;99.90;;;;;;5043953;28;20377;-70
2022/12/22 08:57:33;;;;;;;;;;;19.50;99.90;;;;;;5043469;28;20391;-72
2022/12/22 09:00:00;;;;;;;;;;;19.50;99.90;;;;;;5038561;28;19908;-72
2022/12/22 09:02:26;;;;;;;;;;;19.50;99.90;;;;;;5045047;28;19991;-72
2022/12/22 09:04:53;;;;;;;;;;;19.50;99.90;;;;;;5040519;28;20011;-71
2022/12/22 09:07:19;;;;;;;;;;;19.50;99.90;;;;;;5041645;28;19912;-73
2022/12/22 09:09:46;;;;;;;;;;;19.40;99.90;;;;;;5039644;28;19979;-77
2022/12/22 09:12:13;;;;;;;;;;;19.30;99.90;;;;;;5042036;28;19974;-75
2022/12/22 09:14:40;;;;;;;;;;;19.40;99.90;;;;;;5043318;28;19999;-74
2022/12/22 09:17:07;;;;;;;;;;;19.20;99.90;;;;;;5040114;28;19916;-72
2022/12/22 09:19:34;;;;;;;;;;;19.40;99.90;;;;;;5042422;28;19917;-72
2022/12/22 09:22:00;;;;;;;;;;;19.30;99.90;;;;;;5038935;28;19990;-72
2022/12/22 09:24:27;;;;;;;;;;;19.30;99.90;;;;;;5043491;28;20388;-72
2022/12/22 09:26:54;;;;;;;;;;;19.40;99.90;;;;;;5041144;28;19912;-70
2022/12/22 09:29:20;;;;;;;;;;;19.20;99.90;;;;;;5041218;28;19912;-73
2022/12/22 09:31:47;;;;;;;;;;;19.20;99.90;;;;;;5041047;28;20327;-73
2022/12/22 09:34:14;;;;;;;;;;;19.20;99.90;;;;;;5040900;28;20038;-76
2022/12/22 09:36:41;;;;;;;;;;;19.10;99.90;;;;;;5043519;28;19923;-73
2022/12/22 09:39:09;;;;;;;;;;;19.00;99.90;;;;;;5037601;28;20428;-73
2022/12/22 09:41:50;;;;;;;;;;;19.10;99.90;;;;;;5044611;28;19948;-74
2022/12/22 09:44:16;;;;;;;;;;;19.00;99.90;;;;;;5039812;28;19912;-73
2022/12/22 09:46:44;;;;;;;;;;;19.00;99.90;;;;;;5044003;28;20011;-75
2022/12/22 09:49:15;;;;;;;;;;;19.10;99.90;;;;;;5041535;28;19913;-74
2022/12/22 09:51:43;;;;;;;;;;;19.10;99.90;;;;;;5043838;28;19908;-73
2022/12/22 09:54:11;;;;;;;;;;;19.10;99.90;;;;;;5035155;28;20003;-73
2022/12/22 09:56:38;;;;;;;;;;;19.00;99.90;;;;;;5039403;28;20414;-74
2022/12/22 09:59:08;;;;;;;;;;;19.00;99.90;;;;;;5039080;28;19921;-75
2022/12/22 10:01:41;;;;;;;;;;;19.00;99.90;;;;;;5044057;28;20370;-74
2022/12/22 10:04:31;;;;;;;;;;;19.00;99.90;;;;;;5037038;28;20503;-75
2022/12/22 10:07:07;;;;;;;;;;;19.00;99.90;;;;;;5040917;28;19924;-73
2022/12/22 10:09:35;;;;;;;;;;;19.00;99.90;;;;;;5042909;28;19920;-74
2022/12/22 10:12:03;;;;;;;;;;;19.00;99.90;;;;;;5036854;28;20388;-74
2022/12/22 10:14:34;;;;;;;;;;;19.00;99.90;;;;;;5038718;28;20388;-73
2022/12/22 10:17:18;;;;;;;;;;;19.00;99.90;;;;;;5036797;28;19931;-75
2022/12/22 10:19:46;;;;;;;;;;;19.00;99.90;;;;;;5036362;28;20341;-75
2022/12/22 10:22:25;;;;;;;;;;;19.00;99.90;;;;;;5037383;28;20202;-76
2022/12/22 10:24:52;;;;;;;;;;;18.90;99.90;;;;;;5045745;28;19913;-74
2022/12/22 10:27:20;;;;;;;;;;;18.90;99.90;;;;;;5042172;28;19908;-71
2022/12/22 10:29:46;;;;;;;;;;;18.90;99.90;;;;;;5046554;28;19931;-73
2022/12/22 10:32:15;;;;;;;;;;;19.00;99.90;;;;;;5042390;28;19912;-73
2022/12/22 10:34:59;;;;;;;;;;;19.00;99.90;;;;;;5046762;28;20235;-73
2022/12/22 10:37:33;;;;;;;;;;;19.00;99.90;;;;;;5044106;28;19959;-72
2022/12/22 10:40:20;;;;;;;;;;;19.00;99.90;;;;;;5044792;28;19913;-73
2022/12/22 10:42:51;;;;;;;;;;;19.00;99.90;;;;;;5044662;28;20276;-73
2022/12/22 10:45:22;;;;;;;;;;;19.00;99.90;;;;;;5042355;28;19913;-72
2022/12/22 10:47:51;;;;;;;;;;;19.00;99.90;;;;;;5044298;28;20285;-72
2022/12/22 10:50:18;;;;;;;;;;;19.00;99.90;;;;;;5042719;28;19915;-74
2022/12/22 10:52:53;;;;;;;;;;;18.90;99.90;;;;;;5045356;28;20280;-74
2022/12/22 10:55:28;;;;;;;;;;;19.00;99.90;;;;;;5040842;28;19997;-74
2022/12/22 10:58:09;;;;;;;;;;;18.90;99.90;;;;;;5044282;28;20518;-76
2022/12/22 11:00:37;;;;;;;;;;;19.00;99.90;;;;;;5043926;28;19928;-73
2022/12/22 11:03:05;;;;;;;;;;;19.00;99.90;;;;;;5040052;28;20038;-76
2022/12/22 11:05:33;;;;;;;;;;;19.00;99.90;;;;;;5046618;28;20283;-75
2022/12/22 11:08:13;;;;;;;;;;;19.00;99.90;;;;;;5043942;28;20434;-73
2022/12/22 11:10:42;;;;;;;;;;;19.00;99.90;;;;;;5045261;28;19912;-75
2022/12/22 11:13:36;;;;;;;;;;;19.00;99.90;;;;;;5041309;28;19947;-73
2022/12/22 11:16:08;;;;;;;;;;;19.00;99.90;;;;;;5048100;28;19920;-74
2022/12/22 11:18:38;;;;;;;;;;;19.00;99.90;;;;;;5043626;28;20006;-73
2022/12/22 11:21:15;;;;;;;;;;;19.00;99.90;;;;;;5041933;28;19923;-73
2022/12/22 11:23:42;;;;;;;;;;;19.00;99.90;;;;;;5044945;28;19956;-73
2022/12/22 11:26:14;;;;;;;;;;;19.00;99.90;;;;;;5044692;28;19987;-74
2022/12/22 11:28:41;;;;;;;;;;;19.00;99.90;;;;;;5054930;28;19966;-74
2022/12/22 11:31:26;;;;;;;;;;;19.00;99.90;;;;;;5046017;28;19909;-74
2022/12/22 11:34:11;;;;;;;;;;;19.00;99.90;;;;;;5052627;28;19920;-73
2022/12/22 11:36:46;;;;;;;;;;;19.00;99.90;;;;;;5055028;28;20003;-73
2022/12/22 11:39:14;;;;;;;;;;;19.00;99.90;;;;;;5046014;28;20250;-72
2022/12/22 11:41:59;;;;;;;;;;;19.00;99.90;;;;;;5040619;28;19916;-72
2022/12/22 11:44:44;;;;;;;;;;;19.00;99.90;;;;;;5038775;28;19912;-73
2022/12/22 11:47:10;;;;;;;;;;;19.00;99.90;;;;;;5043176;28;19967;-74
2022/12/22 11:49:57;;;;;;;;;;;19.00;99.90;;;;;;5042868;28;19948;-72
2022/12/22 11:52:39;;;;;;;;;;;19.00;99.90;;;;;;5036279;28;19913;-74
2022/12/22 11:55:24;;;;;;;;;;;19.00;99.90;;;;;;5034221;28;19919;-74
2022/12/22 11:57:56;;;;;;;;;;;19.10;99.90;;;;;;5035797;28;19996;-73
2022/12/22 12:00:23;;;;;;;;;;;19.10;99.90;;;;;;5033373;28;19920;-73
2022/12/22 12:03:08;;;;;;;;;;;19.00;99.90;;;;;;5053034;28;19925;-75
2022/12/22 12:05:34;;;;;;;;;;;19.00;99.90;;;;;;5048491;28;20036;-74
2022/12/22 12:08:10;;;;;;;;;;;19.00;99.90;;;;;;5054554;28;20403;-77
2022/12/22 12:11:06;;;;;;;;;;;19.00;99.90;;;;;;5054266;28;19943;-73
2022/12/22 12:13:38;;;;;;;;;;;19.00;99.90;;;;;;5031043;28;19912;-73
2022/12/22 12:16:05;;;;;;;;;;;19.00;99.90;;;;;;5047227;28;19990;-74
2022/12/22 12:18:31;;;;;;;;;;;19.00;99.90;;;;;;5033479;28;20038;-75
2022/12/22 12:21:07;;;;;;;;;;;19.00;99.90;;;;;;5035326;28;19940;-73
2022/12/22 12:23:34;;;;;;;;;;;19.00;99.90;;;;;;5051711;28;19908;-73
2022/12/22 12:26:07;;;;;;;;;;;19.00;99.90;;;;;;5053875;28;20222;-74
2022/12/22 12:28:33;;;;;;;;;;;19.00;99.90;;;;;;5047798;28;20317;-74
2022/12/22 12:31:00;;;;;;;;;;;19.00;99.90;;;;;;5035517;28;19975;-75
2022/12/22 12:33:45;;;;;;;;;;;19.00;99.90;;;;;;5052610;28;19920;-73
2022/12/22 12:36:31;;;;;;;;;;;19.10;99.90;;;;;;5032738;28;19927;-75
2022/12/22 12:39:09;;;;;;;;;;;19.10;99.90;;;;;;5039677;28;19919;-75
2022/12/22 12:41:42;;;;;;;;;;;19.00;99.90;;;;;;5046268;28;20556;-74
2022/12/22 12:44:11;;;;;;;;;;;19.00;99.90;;;;;;5032884;28;19920;-72
2022/12/22 12:46:45;;;;;;;;;;;19.10;99.90;;;;;;5032768;28;19996;-74
2022/12/22 12:49:34;;;;;;;;;;;19.00;99.90;;;;;;5033522;28;19912;-72
2022/12/22 12:52:05;;;;;;;;;;;19.00;99.90;;;;;;5041027;28;20360;-75
2022/12/22 12:54:32;;;;;;;;;;;19.00;99.90;;;;;;5052219;28;20349;-74
2022/12/22 12:56:59;;;;;;;;;;;19.00;99.90;;;;;;5054032;28;19920;-72
2022/12/22 12:59:45;;;;;;;;;;;19.10;99.90;;;;;;5050574;28;20086;-74
2022/12/22 13:02:28;;;;;;;;;;;19.10;99.90;;;;;;5052631;28;19924;-73
2022/12/22 13:05:12;;;;;;;;;;;19.10;99.90;;;;;;5051692;28;19915;-74
2022/12/22 13:08:05;;;;;;;;;;;19.00;99.90;;;;;;5032490;28;20514;-73
2022/12/22 13:10:33;;;;;;;;;;;19.10;99.90;;;;;;5032011;28;19909;-71
2022/12/22 13:13:00;;;;;;;;;;;19.10;99.90;;;;;;5050728;28;20004;-72
2022/12/22 13:15:26;;;;;;;;;;;19.10;99.90;;;;;;5050869;28;19916;-74
2022/12/22 13:17:53;;;;;;;;;;;19.10;99.90;;;;;;5053069;28;19913;-73
2022/12/22 13:20:25;;;;;;;;;;;19.10;99.90;;;;;;5052892;28;19908;-71
2022/12/22 13:22:53;;;;;;;;;;;19.10;99.90;;;;;;5054805;28;19919;-73
2022/12/22 13:25:20;;;;;;;;;;;19.10;99.90;;;;;;5053041;28;19923;-76
2022/12/22 13:27:47;;;;;;;;;;;19.10;99.90;;;;;;5053210;28;19915;-74
2022/12/22 13:30:15;;;;;;;;;;;19.10;99.90;;;;;;5038467;28;19913;-73
2022/12/22 13:32:42;;;;;;;;;;;19.10;99.90;;;;;;5039265;28;19928;-74
2022/12/22 13:35:12;;;;;;;;;;;19.00;99.90;;;;;;5053385;28;19952;-77
2022/12/22 13:37:46;;;;;;;;;;;19.00;99.90;;;;;;5049331;28;19923;-75
2022/12/22 13:40:35;;;;;;;;;;;18.90;99.90;;;;;;5034556;28;19913;-73
2022/12/22 13:43:02;;;;;;;;;;;18.90;99.90;;;;;;5051077;28;19913;-73
2022/12/22 13:45:32;;;;;;;;;;;19.00;99.90;;;;;;5052912;28;20284;-75
2022/12/22 13:48:00;;;;;;;;;;;18.90;99.90;;;;;;5052638;28;20383;-72
2022/12/22 13:50:35;;;;;;;;;;;19.00;99.90;;;;;;5053939;28;19909;-74
2022/12/22 13:53:03;;;;;;;;;;;18.90;99.90;;;;;;5032615;28;19923;-73
2022/12/22 13:55:31;;;;;;;;;;;18.90;99.90;;;;;;5033510;28;20011;-73
2022/12/22 13:58:04;;;;;;;;;;;18.90;99.90;;;;;;5036043;28;19913;-72
2022/12/22 14:00:31;;;;;;;;;;;18.90;99.90;;;;;;5053560;28;20243;-73
2022/12/22 14:02:57;;;;;;;;;;;18.90;99.90;;;;;;5055328;28;19995;-75
2022/12/22 14:05:29;;;;;;;;;;;18.80;99.90;;;;;;5058661;28;19913;-72
2022/12/22 14:07:57;;;;;;;;;;;18.80;99.90;;;;;;5055079;28;19909;-73
2022/12/22 14:10:31;;;;;;;;;;;18.80;99.90;;;;;;5045696;28;19920;-73
2022/12/22 14:12:58;;;;;;;;;;;18.90;99.90;;;;;;5035697;28;19923;-73
2022/12/22 14:15:24;;;;;;;;;;;18.90;99.90;;;;;;5038545;28;19913;-72
2022/12/22 14:17:51;;;;;;;;;;;18.90;99.90;;;;;;5033130;28;20361;-73
2022/12/22 14:20:24;;;;;;;;;;;18.80;99.90;;;;;;5047220;28;19920;-72
2022/12/22 14:22:54;;;;;;;;;;;18.80;99.90;;;;;;5053789;28;19908;-73
2022/12/22 14:25:23;;;;;;;;;;;18.80;99.90;;;;;;5057428;28;19908;-73
2022/12/22 14:27:52;;;;;;;;;;;18.70;99.90;;;;;;5037568;28;19917;-73
2022/12/22 14:30:23;;;;;;;;;;;18.70;99.90;;;;;;5045176;28;19913;-77
2022/12/22 14:32:51;;;;;;;;;;;18.70;99.90;;;;;;5049988;28;20254;-73
2022/12/22 14:35:21;;;;;;;;;;;18.60;99.90;;;;;;5056689;28;19928;-74
2022/12/22 14:37:52;;;;;;;;;;;18.50;99.90;;;;;;5053982;28;19935;-74
2022/12/22 14:40:28;;;;;;;;;;;18.50;99.90;;;;;;5056699;28;19923;-75
2022/12/22 14:42:55;;;;;;;;;;;18.50;99.90;;;;;;5035319;28;20471;-74
2022/12/22 14:45:23;;;;;;;;;;;18.50;99.90;;;;;;5036828;28;19924;-72
2022/12/22 14:47:50;;;;;;;;;;;18.50;99.90;;;;;;5034403;28;19912;-74
2022/12/22 14:50:17;;;;;;;;;;;18.50;99.90;;;;;;5036367;28;20353;-74
2022/12/22 14:52:45;;;;;;;;;;;18.40;99.90;;;;;;5048034;28;19928;-74
2022/12/22 14:55:29;;;;;;;;;;;18.40;99.90;;;;;;5055056;28;19916;-73
2022/12/22 14:58:00;;;;;;;;;;;18.40;99.90;;;;;;5053764;28;19909;-73
2022/12/22 15:00:30;;;;;;;;;;;18.30;99.90;;;;;;5056521;28;19909;-74
2022/12/22 15:02:59;;;;;;;;;;;18.30;99.90;;;;;;5036393;28;19935;-75
2022/12/22 15:05:34;;;;;;;;;;;18.30;99.90;;;;;;5036628;28;19913;-71
2022/12/22 15:08:00;;;;;;;;;;;18.30;99.90;;;;;;5034301;28;19913;-72
2022/12/22 15:10:33;;;;;;;;;;;18.10;99.90;;;;;;5054954;28;20006;-75
2022/12/22 15:13:02;;;;;;;;;;;18.10;99.90;;;;;;5037450;28;19962;-75
2022/12/22 15:15:30;;;;;;;;;;;18.10;99.90;;;;;;5034089;28;20003;-75
2022/12/22 15:17:57;;;;;;;;;;;18.10;99.90;;;;;;5035966;28;20354;-73
2022/12/22 15:20:25;;;;;;;;;;;18.00;99.90;;;;;;5033906;28;19955;-72
2022/12/22 15:22:51;;;;;;;;;;;18.00;99.90;;;;;;5052680;28;20270;-72
2022/12/22 15:25:20;;;;;;;;;;;18.00;99.90;;;;;;5052197;28;19924;-72
2022/12/22 15:27:46;;;;;;;;;;;18.00;99.90;;;;;;5056551;28;19913;-73
2022/12/22 15:30:15;;;;;;;;;;;17.90;99.90;;;;;;5045397;28;19913;-73
2022/12/22 15:32:42;;;;;;;;;;;17.90;99.90;;;;;;5050209;28;20367;-71
2022/12/22 15:35:14;;;;;;;;;;;17.80;99.90;;;;;;5054257;28;20391;-71
2022/12/22 15:37:41;;;;;;;;;;;17.90;99.90;;;;;;5053686;28;19961;-72
2022/12/22 15:40:15;;;;;;;;;;;17.90;99.90;;;;;;5054583;28;20369;-72
2022/12/22 15:42:41;;;;;;;;;;;17.80;99.90;;;;;;5041086;28;19920;-72
2022/12/22 15:45:08;;;;;;;;;;;17.70;99.90;;;;;;5032698;28;19931;-72
2022/12/22 15:47:35;;;;;;;;;;;17.80;99.90;;;;;;5033554;28;20058;-74
2022/12/22 15:50:02;;;;;;;;;;;17.80;99.90;;;;;;5035490;28;19931;-74
2022/12/22 15:52:30;;;;;;;;;;;17.70;99.90;;;;;;5044557;28;19916;-73
2022/12/22 15:54:57;;;;;;;;;;;17.70;99.90;;;;;;5055815;28;20017;-74
2022/12/22 15:57:23;;;;;;;;;;;17.70;99.90;;;;;;5051925;28;19916;-75
2022/12/22 15:59:50;;;;;;;;;;;17.70;99.90;;;;;;5054503;28;19920;-74
2022/12/22 16:02:17;;;;;;;;;;;17.70;99.90;;;;;;5042621;28;20274;-72
2022/12/22 16:04:43;;;;;;;;;;;17.70;99.90;;;;;;5034245;28;19905;-72
2022/12/22 16:07:11;;;;;;;;;;;17.60;99.90;;;;;;5049227;28;19916;-72
2022/12/22 16:09:42;;;;;;;;;;;17.60;99.90;;;;;;5054722;28;19995;-72
2022/12/22 16:12:16;;;;;;;;;;;17.50;99.90;;;;;;5057662;28;19908;-72
2022/12/22 16:14:45;;;;;;;;;;;17.50;99.90;;;;;;5054895;28;19912;-73
2022/12/22 16:17:15;;;;;;;;;;;17.50;99.90;;;;;;5045615;28;19927;-73
2022/12/22 16:19:44;;;;;;;;;;;17.60;99.90;;;;;;5034656;28;20046;-72
2022/12/22 16:22:11;;;;;;;;;;;17.60;99.90;;;;;;5036151;28;20276;-74
2022/12/22 16:24:39;;;;;;;;;;;17.60;99.90;;;;;;5032970;28;20032;-72
2022/12/22 16:27:06;;;;;;;;;;;17.70;99.90;;;;;;5047798;28;19920;-73
2022/12/22 16:29:32;;;;;;;;;;;17.60;99.90;;;;;;5054270;28;19916;-74
2022/12/22 16:32:16;;;;;;;;;;;17.70;99.90;;;;;;5057588;28;19909;-72
2022/12/22 16:34:43;;;;;;;;;;;17.70;99.90;;;;;;5041214;28;20683;-73
2022/12/22 16:37:09;;;;;;;;;;;17.70;99.90;;;;;;5047749;28;20385;-72
2022/12/22 16:39:36;;;;;;;;;;;17.80;99.90;;;;;;5054157;28;19931;-74
2022/12/22 16:42:03;;;;;;;;;;;17.80;99.90;;;;;;5057890;28;19916;-74
2022/12/22 16:44:29;;;;;;;;;;;17.80;99.90;;;;;;5053575;28;20620;-73
2022/12/22 16:46:56;;;;;;;;;;;17.80;99.90;;;;;;5048889;28;19913;-72
2022/12/22 16:49:23;;;;;;;;;;;17.80;99.90;;;;;;5036437;28;19920;-76
2022/12/22 16:51:51;;;;;;;;;;;17.90;99.90;;;;;;5034662;28;19913;-73
2022/12/22 16:54:17;;;;;;;;;;;18.00;99.90;;;;;;5036915;28;19927;-75
2022/12/22 16:56:49;;;;;;;;;;;17.90;99.90;;;;;;5039520;28;19928;-75
2022/12/22 16:59:17;;;;;;;;;;;18.00;99.90;;;;;;5046769;28;21007;-74
2022/12/22 17:01:46;;;;;;;;;;;18.00;99.90;;;;;;5053522;28;20254;-73
2022/12/22 17:04:15;;;;;;;;;;;18.00;99.90;;;;;;5056446;28;19920;-72
2022/12/22 17:06:42;;;;;;;;;;;18.30;99.90;;;;;;5045178;28;19913;-73
2022/12/22 17:09:18;;;;;;;;;;;18.00;99.90;;;;;;5051939;28;19919;-73
2022/12/22 17:11:45;;;;;;;;;;;18.00;99.90;;;;;;5053853;28;20098;-72
2022/12/22 17:14:30;;;;;;;;;;;18.00;99.90;;;;;;5057497;28;20307;-72
2022/12/22 17:16:56;;;;;;;;;;;18.10;99.90;;;;;;5055737;28;20395;-75
2022/12/22 17:19:23;;;;;;;;;;;18.10;99.90;;;;;;5042043;28;19913;-76
2022/12/22 17:21:51;;;;;;;;;;;18.10;99.90;;;;;;5033269;28;20306;-76
2022/12/22 17:24:19;;;;;;;;;;;18.20;99.90;;;;;;5036919;28;20382;-75
2022/12/22 17:26:46;;;;;;;;;;;18.20;99.90;;;;;;5044882;28;19912;-73
2022/12/22 17:29:15;;;;;;;;;;;18.20;99.90;;;;;;5042226;28;19920;-73
2022/12/22 17:31:42;;;;;;;;;;;18.20;99.90;;;;;;5034529;28;19913;-74
2022/12/22 17:34:16;;;;;;;;;;;18.20;99.90;;;;;;5039489;28;19927;-74
2022/12/22 17:36:43;;;;;;;;;;;18.20;99.90;;;;;;5038339;28;19925;-74
2022/12/22 17:39:14;;;;;;;;;;;18.20;99.90;;;;;;5054949;28;19965;-73
2022/12/22 17:41:41;;;;;;;;;;;18.10;99.90;;;;;;5057070;28;19915;-74
2022/12/22 17:44:21;;;;;;;;;;;18.20;99.90;;;;;;5044490;28;19995;-74
2022/12/22 17:46:47;;;;;;;;;;;18.20;99.90;;;;;;5037648;28;19909;-74
2022/12/22 17:49:14;;;;;;;;;;;18.10;99.90;;;;;;5041092;28;19909;-73
2022/12/22 17:51:41;;;;;;;;;;;18.10;99.90;;;;;;5036805;28;19948;-73
2022/12/22 17:54:17;;;;;;;;;;;18.20;99.90;;;;;;5055615;28;19912;-74
2022/12/22 17:56:43;;;;;;;;;;;18.20;99.90;;;;;;5056153;28;19974;-74
2022/12/22 17:59:13;;;;;;;;;;;18.20;99.90;;;;;;5060846;28;20355;-74
2022/12/22 18:01:40;;;;;;;;;;;18.30;99.90;;;;;;5057306;28;20007;-74
2022/12/22 18:04:08;;;;;;;;;;;18.20;99.90;;;;;;5058595;28;19958;-74
2022/12/22 18:06:36;;;;;;;;;;;18.20;99.90;;;;;;5059725;28;19914;-74